sensor_id;sensor_type;location;lat;lon;timestamp;temperature;humidity
33139;DHT22;19501;50.948;5.316;2023-08-06T00:00:23;15.40;99.90
33139;DHT22;19501;50.948;5.316;2023-08-06T00:02:49;15.40;99.90
33139;DHT22;19501;50.948;5.316;2023-08-06T00:05:15;15.40;99.90
33139;DHT22;19501;50.948;5.316;2023-08-06T00:07:47;15.40;99.90
33139;DHT22;19501;50.948;5.316;2023-08-06T00:10:12;15.50;99.90
33139;DHT22;19501;50.948;5.316;2023-08-06T00:12:38;15.50;99.90
33139;DHT22;19501;50.948;5.316;2023-08-06T00:15:04;15.40;99.90
33139;DHT22;19501;50.948;5.316;2023-08-06T00:17:30;15.50;99.90
33139;DHT22;19501;50.948;5.316;2023-08-06T00:19:55;15.50;99.90
33139;DHT22;19501;50.948;5.316;2023-08-06T00:22:21;15.60;99.90
33139;DHT22;19501;50.948;5.316;2023-08-06T00:24:47;15.60;99.90
33139;DHT22;19501;50.948;5.316;2023-08-06T00:27:12;15.60;99.90
33139;DHT22;19501;50.948;5.316;2023-08-06T00:29:38;15.60;99.90
33139;DHT22;19501;50.948;5.316;2023-08-06T00:32:04;15.60;99.90
33139;DHT22;19501;50.948;5.316;2023-08-06T00:34:29;15.60;99.90
33139;DHT22;19501;50.948;5.316;2023-08-06T00:36:55;15.50;99.90
33139;DHT22;19501;50.948;5.316;2023-08-06T00:39:21;15.60;99.90
33139;DHT22;19501;50.948;5.316;2023-08-06T00:41:47;15.60;99.90
33139;DHT22;19501;50.948;5.316;2023-08-06T00:44:12;15.50;99.90
33139;DHT22;19501;50.948;5.316;2023-08-06T00:46:38;15.40;99.90
33139;DHT22;19501;50.948;5.316;2023-08-06T00:49:05;15.40;99.90
33139;DHT22;19501;50.948;5.316;2023-08-06T00:51:32;15.50;99.90
33139;DHT22;19501;50.948;5.316;2023-08-06T00:53:57;15.40;99.90
33139;DHT22;19501;50.948;5.316;2023-08-06T00:56:24;15.40;99.90
33139;DHT22;19501;50.948;5.316;2023-08-06T00:58:50;15.50;99.90
33139;DHT22;19501;50.948;5.316;2023-08-06T01:01:16;15.40;99.90
33139;DHT22;19501;50.948;5.316;2023-08-06T01:03:42;15.40;99.90
33139;DHT22;19501;50.948;5.316;2023-08-06T01:06:08;15.60;99.90
33139;DHT22;19501;50.948;5.316;2023-08-06T01:13:48;15.70;99.90
33139;DHT22;19501;50.948;5.316;2023-08-06T01:16:18;15.70;99.90
33139;DHT22;19501;50.948;5.316;2023-08-06T01:18:49;15.60;99.90
33139;DHT22;19501;50.948;5.316;2023-08-06T01:21:16;15.60;99.90
33139;DHT22;19501;50.948;5.316;2023-08-06T01:23:42;15.60;99.90
33139;DHT22;19501;50.948;5.316;2023-08-06T01:26:33;15.60;99.90
33139;DHT22;19501;50.948;5.316;2023-08-06T01:31:43;15.60;99.90
33139;DHT22;19501;50.948;5.316;2023-08-06T01:34:23;15.40;99.90
33139;DHT22;19501;50.948;5.316;2023-08-06T01:36:50;15.50;99.90
33139;DHT22;19501;50.948;5.316;2023-08-06T01:39:16;15.50;99.90
33139;DHT22;19501;50.948;5.316;2023-08-06T01:41:41;15.50;99.90
33139;DHT22;19501;50.948;5.316;2023-08-06T01:44:07;15.60;99.90
33139;DHT22;19501;50.948;5.316;2023-08-06T01:46:33;15.60;99.90
33139;DHT22;19501;50.948;5.316;2023-08-06T01:48:58;15.40;99.90
33139;DHT22;19501;50.948;5.316;2023-08-06T01:51:24;15.30;99.90
33139;DHT22;19501;50.948;5.316;2023-08-06T01:53:50;15.30;99.90
33139;DHT22;19501;50.948;5.316;2023-08-06T01:56:15;15.40;99.90
33139;DHT22;19501;50.948;5.316;2023-08-06T01:58:41;15.40;99.90
33139;DHT22;19501;50.948;5.316;2023-08-06T02:01:07;15.40;99.90
33139;DHT22;19501;50.948;5.316;2023-08-06T02:03:32;15.50;99.90
33139;DHT22;19501;50.948;5.316;2023-08-06T02:05:58;15.40;99.90
33139;DHT22;19501;50.948;5.316;2023-08-06T02:08:24;15.30;99.90
33139;DHT22;19501;50.948;5.316;2023-08-06T02:10:51;15.40;99.90
33139;DHT22;19501;50.948;5.316;2023-08-06T02:13:17;15.50;99.90
33139;DHT22;19501;50.948;5.316;2023-08-06T02:15:44;15.40;99.90
33139;DHT22;19501;50.948;5.316;2023-08-06T02:18:09;15.40;99.90
33139;DHT22;19501;50.948;5.316;2023-08-06T02:20:35;15.40;99.90
33139;DHT22;19501;50.948;5.316;2023-08-06T02:23:01;15.60;99.90
33139;DHT22;19501;50.948;5.316;2023-08-06T02:25:27;15.60;99.90
33139;DHT22;19501;50.948;5.316;2023-08-06T02:27:52;15.70;99.90
33139;DHT22;19501;50.948;5.316;2023-08-06T02:30:18;15.60;99.90
33139;DHT22;19501;50.948;5.316;2023-08-06T02:32:44;15.60;99.90
33139;DHT22;19501;50.948;5.316;2023-08-06T02:35:09;15.70;99.90
33139;DHT22;19501;50.948;5.316;2023-08-06T02:37:35;15.70;99.90
33139;DHT22;19501;50.948;5.316;2023-08-06T02:40:01;15.60;99.90
33139;DHT22;19501;50.948;5.316;2023-08-06T02:42:27;15.60;99.90
33139;DHT22;19501;50.948;5.316;2023-08-06T02:44:53;15.70;99.90
33139;DHT22;19501;50.948;5.316;2023-08-06T02:47:21;15.70;99.90
33139;DHT22;19501;50.948;5.316;2023-08-06T02:49:46;15.70;99.90
33139;DHT22;19501;50.948;5.316;2023-08-06T02:52:12;15.70;99.90
33139;DHT22;19501;50.948;5.316;2023-08-06T02:54:38;15.80;99.90
33139;DHT22;19501;50.948;5.316;2023-08-06T02:57:04;15.80;99.90
33139;DHT22;19501;50.948;5.316;2023-08-06T02:59:31;15.90;99.90
33139;DHT22;19501;50.948;5.316;2023-08-06T03:01:56;16.00;99.90
33139;DHT22;19501;50.948;5.316;2023-08-06T03:04:22;16.10;99.90
33139;DHT22;19501;50.948;5.316;2023-08-06T03:06:50;16.10;99.90
33139;DHT22;19501;50.948;5.316;2023-08-06T03:09:16;16.10;99.90
33139;DHT22;19501;50.948;5.316;2023-08-06T03:11:42;16.00;99.90
33139;DHT22;19501;50.948;5.316;2023-08-06T03:14:08;15.90;99.90
33139;DHT22;19501;50.948;5.316;2023-08-06T03:16:34;16.10;99.90
33139;DHT22;19501;50.948;5.316;2023-08-06T03:19:02;15.90;99.90
33139;DHT22;19501;50.948;5.316;2023-08-06T03:21:27;15.90;99.90
33139;DHT22;19501;50.948;5.316;2023-08-06T03:23:53;15.80;99.90
33139;DHT22;19501;50.948;5.316;2023-08-06T03:26:19;15.80;99.90
33139;DHT22;19501;50.948;5.316;2023-08-06T03:28:49;15.60;99.90
33139;DHT22;19501;50.948;5.316;2023-08-06T03:31:15;15.60;99.90
33139;DHT22;19501;50.948;5.316;2023-08-06T03:33:40;15.60;99.90
33139;DHT22;19501;50.948;5.316;2023-08-06T03:36:06;15.60;99.90
33139;DHT22;19501;50.948;5.316;2023-08-06T03:38:32;15.60;99.90
33139;DHT22;19501;50.948;5.316;2023-08-06T03:41:00;15.50;99.90
33139;DHT22;19501;50.948;5.316;2023-08-06T03:43:25;15.40;99.90
33139;DHT22;19501;50.948;5.316;2023-08-06T03:45:51;15.40;99.90
33139;DHT22;19501;50.948;5.316;2023-08-06T03:48:17;15.40;99.90
33139;DHT22;19501;50.948;5.316;2023-08-06T03:50:42;15.40;99.90
33139;DHT22;19501;50.948;5.316;2023-08-06T03:53:08;15.30;99.90
33139;DHT22;19501;50.948;5.316;2023-08-06T03:55:34;15.50;99.90
33139;DHT22;19501;50.948;5.316;2023-08-06T03:57:59;15.50;99.90
33139;DHT22;19501;50.948;5.316;2023-08-06T04:00:25;15.50;99.90
33139;DHT22;19501;50.948;5.316;2023-08-06T04:02:51;15.60;99.90
33139;DHT22;19501;50.948;5.316;2023-08-06T04:05:17;15.70;99.90
33139;DHT22;19501;50.948;5.316;2023-08-06T04:07:42;15.70;99.90
33139;DHT22;19501;50.948;5.316;2023-08-06T04:10:08;15.90;99.90
33139;DHT22;19501;50.948;5.316;2023-08-06T04:12:34;15.80;99.90
33139;DHT22;19501;50.948;5.316;2023-08-06T04:15:02;15.60;99.90
33139;DHT22;19501;50.948;5.316;2023-08-06T04:17:29;15.70;99.90
33139;DHT22;19501;50.948;5.316;2023-08-06T04:19:54;15.70;99.90
33139;DHT22;19501;50.948;5.316;2023-08-06T04:22:24;15.80;99.90
33139;DHT22;19501;50.948;5.316;2023-08-06T04:24:49;15.70;99.90
33139;DHT22;19501;50.948;5.316;2023-08-06T04:27:19;15.70;99.90
33139;DHT22;19501;50.948;5.316;2023-08-06T04:29:44;15.70;99.90
33139;DHT22;19501;50.948;5.316;2023-08-06T04:32:10;15.70;99.90
33139;DHT22;19501;50.948;5.316;2023-08-06T04:34:37;15.70;99.90
33139;DHT22;19501;50.948;5.316;2023-08-06T04:37:03;15.80;99.90
33139;DHT22;19501;50.948;5.316;2023-08-06T04:39:29;15.80;99.90
33139;DHT22;19501;50.948;5.316;2023-08-06T04:41:56;15.80;99.90
33139;DHT22;19501;50.948;5.316;2023-08-06T04:44:25;15.70;99.90
33139;DHT22;19501;50.948;5.316;2023-08-06T04:46:51;15.70;99.90
33139;DHT22;19501;50.948;5.316;2023-08-06T04:49:17;15.70;99.90
33139;DHT22;19501;50.948;5.316;2023-08-06T04:51:43;15.60;99.90
33139;DHT22;19501;50.948;5.316;2023-08-06T04:54:10;15.60;99.90
33139;DHT22;19501;50.948;5.316;2023-08-06T04:56:35;15.70;99.90
33139;DHT22;19501;50.948;5.316;2023-08-06T04:59:01;15.70;99.90
33139;DHT22;19501;50.948;5.316;2023-08-06T05:01:27;15.70;99.90
33139;DHT22;19501;50.948;5.316;2023-08-06T05:03:53;15.70;99.90
33139;DHT22;19501;50.948;5.316;2023-08-06T05:06:19;15.70;99.90
33139;DHT22;19501;50.948;5.316;2023-08-06T05:08:45;15.70;99.90
33139;DHT22;19501;50.948;5.316;2023-08-06T05:11:11;15.60;99.90
33139;DHT22;19501;50.948;5.316;2023-08-06T05:13:36;15.70;99.90
33139;DHT22;19501;50.948;5.316;2023-08-06T05:16:02;15.70;99.90
33139;DHT22;19501;50.948;5.316;2023-08-06T05:18:28;15.60;99.90
33139;DHT22;19501;50.948;5.316;2023-08-06T05:20:54;15.60;99.90
33139;DHT22;19501;50.948;5.316;2023-08-06T05:23:20;15.60;99.90
33139;DHT22;19501;50.948;5.316;2023-08-06T05:25:45;15.60;99.90
33139;DHT22;19501;50.948;5.316;2023-08-06T05:28:11;15.60;99.90
33139;DHT22;19501;50.948;5.316;2023-08-06T05:30:40;15.70;99.90
33139;DHT22;19501;50.948;5.316;2023-08-06T05:33:06;15.70;99.90
33139;DHT22;19501;50.948;5.316;2023-08-06T05:35:32;15.60;99.90
33139;DHT22;19501;50.948;5.316;2023-08-06T05:37:58;15.60;99.90
33139;DHT22;19501;50.948;5.316;2023-08-06T05:40:23;15.50;99.90
33139;DHT22;19501;50.948;5.316;2023-08-06T05:42:52;15.60;99.90
33139;DHT22;19501;50.948;5.316;2023-08-06T05:45:18;15.60;99.90
33139;DHT22;19501;50.948;5.316;2023-08-06T05:47:44;15.50;99.90
33139;DHT22;19501;50.948;5.316;2023-08-06T05:50:09;15.60;99.90
33139;DHT22;19501;50.948;5.316;2023-08-06T05:52:35;15.70;99.90
33139;DHT22;19501;50.948;5.316;2023-08-06T05:55:01;15.60;99.90
33139;DHT22;19501;50.948;5.316;2023-08-06T05:57:29;15.50;99.90
33139;DHT22;19501;50.948;5.316;2023-08-06T05:59:54;15.50;99.90
33139;DHT22;19501;50.948;5.316;2023-08-06T06:02:20;15.40;99.90
33139;DHT22;19501;50.948;5.316;2023-08-06T06:04:45;15.40;99.90
33139;DHT22;19501;50.948;5.316;2023-08-06T06:07:11;15.40;99.90
33139;DHT22;19501;50.948;5.316;2023-08-06T06:09:37;15.30;99.90
33139;DHT22;19501;50.948;5.316;2023-08-06T06:12:05;15.20;99.90
33139;DHT22;19501;50.948;5.316;2023-08-06T06:14:31;15.20;99.90
33139;DHT22;19501;50.948;5.316;2023-08-06T06:16:56;15.30;99.90
33139;DHT22;19501;50.948;5.316;2023-08-06T06:19:22;15.20;99.90
33139;DHT22;19501;50.948;5.316;2023-08-06T06:21:48;15.10;99.90
33139;DHT22;19501;50.948;5.316;2023-08-06T06:24:13;15.00;99.90
33139;DHT22;19501;50.948;5.316;2023-08-06T06:26:39;14.90;99.90
33139;DHT22;19501;50.948;5.316;2023-08-06T06:29:05;14.70;99.90
33139;DHT22;19501;50.948;5.316;2023-08-06T06:31:30;14.60;99.90
33139;DHT22;19501;50.948;5.316;2023-08-06T06:33:56;14.40;99.90
33139;DHT22;19501;50.948;5.316;2023-08-06T06:36:22;14.40;99.90
33139;DHT22;19501;50.948;5.316;2023-08-06T06:38:49;14.40;99.90
33139;DHT22;19501;50.948;5.316;2023-08-06T06:41:14;14.40;99.90
33139;DHT22;19501;50.948;5.316;2023-08-06T06:43:40;14.30;99.90
33139;DHT22;19501;50.948;5.316;2023-08-06T06:46:06;14.20;99.90
33139;DHT22;19501;50.948;5.316;2023-08-06T06:48:33;14.10;99.90
33139;DHT22;19501;50.948;5.316;2023-08-06T06:50:58;14.10;99.90
33139;DHT22;19501;50.948;5.316;2023-08-06T06:53:25;14.20;99.90
33139;DHT22;19501;50.948;5.316;2023-08-06T06:56:11;14.20;99.90
33139;DHT22;19501;50.948;5.316;2023-08-06T06:58:36;14.10;99.90
33139;DHT22;19501;50.948;5.316;2023-08-06T07:01:04;14.10;99.90
33139;DHT22;19501;50.948;5.316;2023-08-06T07:03:29;14.10;99.90
33139;DHT22;19501;50.948;5.316;2023-08-06T07:05:58;14.20;99.90
33139;DHT22;19501;50.948;5.316;2023-08-06T07:08:25;14.20;99.90
33139;DHT22;19501;50.948;5.316;2023-08-06T07:10:50;14.10;99.90
33139;DHT22;19501;50.948;5.316;2023-08-06T07:13:24;14.10;99.90
33139;DHT22;19501;50.948;5.316;2023-08-06T07:15:50;14.30;99.90
33139;DHT22;19501;50.948;5.316;2023-08-06T07:18:16;14.40;99.90
33139;DHT22;19501;50.948;5.316;2023-08-06T07:20:41;14.50;99.90
33139;DHT22;19501;50.948;5.316;2023-08-06T07:23:07;14.60;99.90
33139;DHT22;19501;50.948;5.316;2023-08-06T07:25:33;14.50;99.90
33139;DHT22;19501;50.948;5.316;2023-08-06T07:27:58;14.50;99.90
33139;DHT22;19501;50.948;5.316;2023-08-06T07:30:24;14.60;99.90
33139;DHT22;19501;50.948;5.316;2023-08-06T07:32:50;14.50;99.90
33139;DHT22;19501;50.948;5.316;2023-08-06T07:35:15;14.50;99.90
33139;DHT22;19501;50.948;5.316;2023-08-06T07:37:41;14.50;99.90
33139;DHT22;19501;50.948;5.316;2023-08-06T07:40:07;14.40;99.90
33139;DHT22;19501;50.948;5.316;2023-08-06T07:42:33;14.40;99.90
33139;DHT22;19501;50.948;5.316;2023-08-06T07:44:59;14.40;99.90
33139;DHT22;19501;50.948;5.316;2023-08-06T07:47:24;14.40;99.90
33139;DHT22;19501;50.948;5.316;2023-08-06T07:49:50;14.40;99.90
33139;DHT22;19501;50.948;5.316;2023-08-06T07:52:16;14.50;99.90
33139;DHT22;19501;50.948;5.316;2023-08-06T07:54:43;14.50;99.90
33139;DHT22;19501;50.948;5.316;2023-08-06T07:57:09;14.50;99.90
33139;DHT22;19501;50.948;5.316;2023-08-06T07:59:35;14.40;99.90
33139;DHT22;19501;50.948;5.316;2023-08-06T08:02:01;14.40;99.90
33139;DHT22;19501;50.948;5.316;2023-08-06T08:04:27;14.50;99.90
33139;DHT22;19501;50.948;5.316;2023-08-06T08:06:55;14.40;99.90
33139;DHT22;19501;50.948;5.316;2023-08-06T08:09:21;14.30;99.90
33139;DHT22;19501;50.948;5.316;2023-08-06T08:11:46;14.30;99.90
33139;DHT22;19501;50.948;5.316;2023-08-06T08:14:12;14.40;99.90
33139;DHT22;19501;50.948;5.316;2023-08-06T08:16:38;14.40;99.90
33139;DHT22;19501;50.948;5.316;2023-08-06T08:19:04;14.40;99.90
33139;DHT22;19501;50.948;5.316;2023-08-06T08:21:29;14.40;99.90
33139;DHT22;19501;50.948;5.316;2023-08-06T08:23:55;14.40;99.90
33139;DHT22;19501;50.948;5.316;2023-08-06T08:26:21;14.40;99.90
33139;DHT22;19501;50.948;5.316;2023-08-06T08:28:47;14.40;99.90
33139;DHT22;19501;50.948;5.316;2023-08-06T08:31:12;14.50;99.90
33139;DHT22;19501;50.948;5.316;2023-08-06T08:33:38;14.50;99.90
33139;DHT22;19501;50.948;5.316;2023-08-06T08:36:04;14.70;99.90
33139;DHT22;19501;50.948;5.316;2023-08-06T08:38:30;14.60;99.90
33139;DHT22;19501;50.948;5.316;2023-08-06T08:40:55;14.50;99.90
33139;DHT22;19501;50.948;5.316;2023-08-06T08:43:21;14.50;99.90
33139;DHT22;19501;50.948;5.316;2023-08-06T08:45:50;14.60;99.90
33139;DHT22;19501;50.948;5.316;2023-08-06T08:48:18;14.60;99.90
33139;DHT22;19501;50.948;5.316;2023-08-06T08:50:46;14.70;99.90
33139;DHT22;19501;50.948;5.316;2023-08-06T08:53:14;14.70;99.90
33139;DHT22;19501;50.948;5.316;2023-08-06T08:55:40;14.70;99.90
33139;DHT22;19501;50.948;5.316;2023-08-06T08:58:07;14.70;99.90
33139;DHT22;19501;50.948;5.316;2023-08-06T09:00:34;14.70;99.90
33139;DHT22;19501;50.948;5.316;2023-08-06T09:03:00;14.70;99.90
33139;DHT22;19501;50.948;5.316;2023-08-06T09:05:29;14.70;99.90
33139;DHT22;19501;50.948;5.316;2023-08-06T09:08:03;14.60;99.90
33139;DHT22;19501;50.948;5.316;2023-08-06T09:10:29;14.50;99.90
33139;DHT22;19501;50.948;5.316;2023-08-06T09:12:56;14.60;99.90
33139;DHT22;19501;50.948;5.316;2023-08-06T09:15:26;14.70;99.90
33139;DHT22;19501;50.948;5.316;2023-08-06T09:17:52;14.80;99.90
33139;DHT22;19501;50.948;5.316;2023-08-06T09:20:19;14.80;99.90
33139;DHT22;19501;50.948;5.316;2023-08-06T09:22:48;14.80;99.90
33139;DHT22;19501;50.948;5.316;2023-08-06T09:25:24;14.80;99.90
33139;DHT22;19501;50.948;5.316;2023-08-06T09:27:52;14.90;99.90
33139;DHT22;19501;50.948;5.316;2023-08-06T09:30:31;14.90;99.90
33139;DHT22;19501;50.948;5.316;2023-08-06T09:32:58;15.00;99.90
33139;DHT22;19501;50.948;5.316;2023-08-06T09:35:23;14.90;99.90
33139;DHT22;19501;50.948;5.316;2023-08-06T09:37:51;14.90;99.90
33139;DHT22;19501;50.948;5.316;2023-08-06T09:40:30;15.00;99.90
33139;DHT22;19501;50.948;5.316;2023-08-06T09:42:56;14.90;99.90
33139;DHT22;19501;50.948;5.316;2023-08-06T09:45:23;14.90;99.90
33139;DHT22;19501;50.948;5.316;2023-08-06T09:47:50;14.90;99.90
33139;DHT22;19501;50.948;5.316;2023-08-06T09:50:19;14.90;99.90
33139;DHT22;19501;50.948;5.316;2023-08-06T09:52:47;14.80;99.90
33139;DHT22;19501;50.948;5.316;2023-08-06T09:55:16;14.80;99.90
33139;DHT22;19501;50.948;5.316;2023-08-06T09:57:42;14.90;99.90
33139;DHT22;19501;50.948;5.316;2023-08-06T10:00:10;14.90;99.90
33139;DHT22;19501;50.948;5.316;2023-08-06T10:02:40;14.80;99.90
33139;DHT22;19501;50.948;5.316;2023-08-06T10:05:07;14.80;99.90
33139;DHT22;19501;50.948;5.316;2023-08-06T10:07:33;14.80;99.90
33139;DHT22;19501;50.948;5.316;2023-08-06T10:09:59;14.80;99.90
33139;DHT22;19501;50.948;5.316;2023-08-06T10:12:27;14.80;99.90
33139;DHT22;19501;50.948;5.316;2023-08-06T10:14:57;14.90;99.90
33139;DHT22;19501;50.948;5.316;2023-08-06T10:17:24;14.90;99.90
33139;DHT22;19501;50.948;5.316;2023-08-06T10:19:51;14.90;99.90
33139;DHT22;19501;50.948;5.316;2023-08-06T10:22:20;14.90;99.90
33139;DHT22;19501;50.948;5.316;2023-08-06T10:24:52;14.90;99.90
33139;DHT22;19501;50.948;5.316;2023-08-06T10:27:36;14.80;99.90
33139;DHT22;19501;50.948;5.316;2023-08-06T10:30:46;14.80;99.90
33139;DHT22;19501;50.948;5.316;2023-08-06T10:33:12;14.70;99.90
33139;DHT22;19501;50.948;5.316;2023-08-06T10:38:22;14.50;99.90
33139;DHT22;19501;50.948;5.316;2023-08-06T10:43:29;14.50;99.90
33139;DHT22;19501;50.948;5.316;2023-08-06T10:45:59;14.50;99.90
33139;DHT22;19501;50.948;5.316;2023-08-06T10:48:45;14.50;99.90
33139;DHT22;19501;50.948;5.316;2023-08-06T10:51:13;14.50;99.90
33139;DHT22;19501;50.948;5.316;2023-08-06T10:53:46;14.40;99.90
33139;DHT22;19501;50.948;5.316;2023-08-06T10:56:17;14.40;99.90
33139;DHT22;19501;50.948;5.316;2023-08-06T10:58:44;14.40;99.90
33139;DHT22;19501;50.948;5.316;2023-08-06T11:01:11;14.40;99.90
33139;DHT22;19501;50.948;5.316;2023-08-06T11:03:38;14.50;99.90
33139;DHT22;19501;50.948;5.316;2023-08-06T11:06:04;14.40;99.90
33139;DHT22;19501;50.948;5.316;2023-08-06T11:08:35;14.50;99.90
33139;DHT22;19501;50.948;5.316;2023-08-06T11:11:12;14.60;99.90
33139;DHT22;19501;50.948;5.316;2023-08-06T11:13:46;14.70;99.90
33139;DHT22;19501;50.948;5.316;2023-08-06T11:16:13;14.70;99.90
33139;DHT22;19501;50.948;5.316;2023-08-06T11:18:42;14.80;99.90
33139;DHT22;19501;50.948;5.316;2023-08-06T11:21:08;14.70;99.90
33139;DHT22;19501;50.948;5.316;2023-08-06T11:23:35;14.80;99.90
33139;DHT22;19501;50.948;5.316;2023-08-06T11:26:00;14.80;99.90
33139;DHT22;19501;50.948;5.316;2023-08-06T11:28:27;14.70;99.90
33139;DHT22;19501;50.948;5.316;2023-08-06T11:30:53;14.60;99.90
33139;DHT22;19501;50.948;5.316;2023-08-06T11:33:24;14.60;99.90
33139;DHT22;19501;50.948;5.316;2023-08-06T11:35:58;14.60;99.90
33139;DHT22;19501;50.948;5.316;2023-08-06T11:38:30;14.50;99.90
33139;DHT22;19501;50.948;5.316;2023-08-06T11:40:56;14.70;99.90
33139;DHT22;19501;50.948;5.316;2023-08-06T11:43:22;14.80;99.90
33139;DHT22;19501;50.948;5.316;2023-08-06T11:45:49;14.80;99.90
33139;DHT22;19501;50.948;5.316;2023-08-06T11:48:16;14.90;99.90
33139;DHT22;19501;50.948;5.316;2023-08-06T11:50:42;14.90;99.90
33139;DHT22;19501;50.948;5.316;2023-08-06T11:53:14;15.00;99.90
33139;DHT22;19501;50.948;5.316;2023-08-06T11:55:40;15.10;99.90
33139;DHT22;19501;50.948;5.316;2023-08-06T11:58:06;15.10;99.90
33139;DHT22;19501;50.948;5.316;2023-08-06T12:00:32;15.20;99.90
33139;DHT22;19501;50.948;5.316;2023-08-06T12:02:58;15.20;99.90
33139;DHT22;19501;50.948;5.316;2023-08-06T12:05:29;15.10;99.90
33139;DHT22;19501;50.948;5.316;2023-08-06T12:07:57;15.00;99.90
33139;DHT22;19501;50.948;5.316;2023-08-06T12:10:25;15.10;99.90
33139;DHT22;19501;50.948;5.316;2023-08-06T12:12:51;15.00;99.90
33139;DHT22;19501;50.948;5.316;2023-08-06T12:15:17;14.80;99.90
33139;DHT22;19501;50.948;5.316;2023-08-06T12:17:42;14.70;99.90
33139;DHT22;19501;50.948;5.316;2023-08-06T12:20:09;14.70;99.90
33139;DHT22;19501;50.948;5.316;2023-08-06T12:22:36;14.70;99.90
33139;DHT22;19501;50.948;5.316;2023-08-06T12:25:04;14.80;99.90
33139;DHT22;19501;50.948;5.316;2023-08-06T12:27:33;14.70;99.90
33139;DHT22;19501;50.948;5.316;2023-08-06T12:29:59;14.60;99.90
33139;DHT22;19501;50.948;5.316;2023-08-06T12:32:25;14.60;99.90
33139;DHT22;19501;50.948;5.316;2023-08-06T12:34:50;14.60;99.90
33139;DHT22;19501;50.948;5.316;2023-08-06T12:37:16;14.80;99.90
33139;DHT22;19501;50.948;5.316;2023-08-06T12:39:42;14.70;99.90
33139;DHT22;19501;50.948;5.316;2023-08-06T12:42:08;14.80;99.90
33139;DHT22;19501;50.948;5.316;2023-08-06T12:44:33;14.80;99.90
33139;DHT22;19501;50.948;5.316;2023-08-06T12:46:59;14.80;99.90
33139;DHT22;19501;50.948;5.316;2023-08-06T12:49:25;14.80;99.90
33139;DHT22;19501;50.948;5.316;2023-08-06T12:51:52;14.80;99.90
33139;DHT22;19501;50.948;5.316;2023-08-06T12:54:19;14.70;99.90
33139;DHT22;19501;50.948;5.316;2023-08-06T12:56:46;14.70;99.90
33139;DHT22;19501;50.948;5.316;2023-08-06T12:59:13;14.70;99.90
33139;DHT22;19501;50.948;5.316;2023-08-06T13:01:39;14.70;99.90
33139;DHT22;19501;50.948;5.316;2023-08-06T13:04:04;14.60;99.90
33139;DHT22;19501;50.948;5.316;2023-08-06T13:06:30;14.60;99.90
33139;DHT22;19501;50.948;5.316;2023-08-06T13:09:01;14.60;99.90
33139;DHT22;19501;50.948;5.316;2023-08-06T13:11:27;14.70;99.90
33139;DHT22;19501;50.948;5.316;2023-08-06T13:13:53;14.70;99.90
33139;DHT22;19501;50.948;5.316;2023-08-06T13:16:18;14.70;99.90
33139;DHT22;19501;50.948;5.316;2023-08-06T13:18:45;14.50;99.90
33139;DHT22;19501;50.948;5.316;2023-08-06T13:21:11;14.50;99.90
33139;DHT22;19501;50.948;5.316;2023-08-06T13:23:36;14.50;99.90
33139;DHT22;19501;50.948;5.316;2023-08-06T13:26:02;14.50;99.90
33139;DHT22;19501;50.948;5.316;2023-08-06T13:28:28;14.50;99.90
33139;DHT22;19501;50.948;5.316;2023-08-06T13:30:53;14.50;99.90
33139;DHT22;19501;50.948;5.316;2023-08-06T13:33:19;14.50;99.90
33139;DHT22;19501;50.948;5.316;2023-08-06T13:35:45;14.50;99.90
33139;DHT22;19501;50.948;5.316;2023-08-06T13:38:10;14.40;99.90
33139;DHT22;19501;50.948;5.316;2023-08-06T13:40:36;14.40;99.90
33139;DHT22;19501;50.948;5.316;2023-08-06T13:43:02;14.40;99.90
33139;DHT22;19501;50.948;5.316;2023-08-06T13:45:27;14.40;99.90
33139;DHT22;19501;50.948;5.316;2023-08-06T13:47:55;14.40;99.90
33139;DHT22;19501;50.948;5.316;2023-08-06T13:50:20;14.30;99.90
33139;DHT22;19501;50.948;5.316;2023-08-06T13:52:47;14.40;99.90
33139;DHT22;19501;50.948;5.316;2023-08-06T13:55:13;14.30;99.90
33139;DHT22;19501;50.948;5.316;2023-08-06T13:57:39;14.30;99.90
33139;DHT22;19501;50.948;5.316;2023-08-06T14:00:05;14.30;99.90
33139;DHT22;19501;50.948;5.316;2023-08-06T14:02:31;14.30;99.90
33139;DHT22;19501;50.948;5.316;2023-08-06T14:04:56;14.30;99.90
33139;DHT22;19501;50.948;5.316;2023-08-06T14:07:22;14.30;99.90
33139;DHT22;19501;50.948;5.316;2023-08-06T14:09:48;14.30;99.90
33139;DHT22;19501;50.948;5.316;2023-08-06T14:12:14;14.30;99.90
33139;DHT22;19501;50.948;5.316;2023-08-06T14:14:40;14.40;99.90
33139;DHT22;19501;50.948;5.316;2023-08-06T14:17:06;14.50;99.90
33139;DHT22;19501;50.948;5.316;2023-08-06T14:19:32;14.60;99.90
33139;DHT22;19501;50.948;5.316;2023-08-06T14:21:58;14.60;99.90
33139;DHT22;19501;50.948;5.316;2023-08-06T14:24:23;14.60;99.90
33139;DHT22;19501;50.948;5.316;2023-08-06T14:26:49;14.70;99.90
33139;DHT22;19501;50.948;5.316;2023-08-06T14:29:15;14.60;99.90
33139;DHT22;19501;50.948;5.316;2023-08-06T14:31:42;14.70;99.90
33139;DHT22;19501;50.948;5.316;2023-08-06T14:34:08;14.60;99.90
33139;DHT22;19501;50.948;5.316;2023-08-06T14:36:34;14.60;99.90
33139;DHT22;19501;50.948;5.316;2023-08-06T14:38:59;14.60;99.90
33139;DHT22;19501;50.948;5.316;2023-08-06T14:41:25;14.60;99.90
33139;DHT22;19501;50.948;5.316;2023-08-06T14:43:51;14.50;99.90
33139;DHT22;19501;50.948;5.316;2023-08-06T14:46:17;14.40;99.90
33139;DHT22;19501;50.948;5.316;2023-08-06T14:48:45;14.40;99.90
33139;DHT22;19501;50.948;5.316;2023-08-06T14:51:11;14.30;99.90
33139;DHT22;19501;50.948;5.316;2023-08-06T14:53:36;14.30;99.90
33139;DHT22;19501;50.948;5.316;2023-08-06T14:56:02;14.30;99.90
33139;DHT22;19501;50.948;5.316;2023-08-06T14:58:28;14.10;99.90
33139;DHT22;19501;50.948;5.316;2023-08-06T15:00:53;14.00;99.90
33139;DHT22;19501;50.948;5.316;2023-08-06T15:03:19;14.10;99.90
33139;DHT22;19501;50.948;5.316;2023-08-06T15:05:49;14.20;99.90
33139;DHT22;19501;50.948;5.316;2023-08-06T15:08:14;14.10;99.90
33139;DHT22;19501;50.948;5.316;2023-08-06T15:10:42;14.00;99.90
33139;DHT22;19501;50.948;5.316;2023-08-06T15:13:08;14.10;99.90
33139;DHT22;19501;50.948;5.316;2023-08-06T15:15:36;14.00;99.90
33139;DHT22;19501;50.948;5.316;2023-08-06T15:18:05;14.10;99.90
33139;DHT22;19501;50.948;5.316;2023-08-06T15:20:30;14.10;99.90
33139;DHT22;19501;50.948;5.316;2023-08-06T15:22:56;14.10;99.90
33139;DHT22;19501;50.948;5.316;2023-08-06T15:25:24;14.10;99.90
33139;DHT22;19501;50.948;5.316;2023-08-06T15:27:50;14.10;99.90
33139;DHT22;19501;50.948;5.316;2023-08-06T15:30:18;14.10;99.90
33139;DHT22;19501;50.948;5.316;2023-08-06T15:32:45;14.10;99.90
33139;DHT22;19501;50.948;5.316;2023-08-06T15:35:12;14.20;99.90
33139;DHT22;19501;50.948;5.316;2023-08-06T15:37:38;14.30;99.90
33139;DHT22;19501;50.948;5.316;2023-08-06T15:40:05;14.30;99.90